Share

Almeria, NE

Sargent (KNESARGE4) Elev 2314 ft | 41.64 °N, 99.38 °W | Change Station

Current weather conditions updated 3 minutes ago

Clear
Clear
62.8 °F
Feels Like 62.8 °F
N
1.0
Wind Variable Wind from NNW
Gusts 11.0 mph
Sunrise 6:48 AM
Sunset 8:25 PM
Moon Waning Gibbous

Today is forecast to be Much Cooler than yesterday.

Pressure 30.12 in
Visibility 10.0 miles
Clouds Clear
Dew Point 34 °F
Humidity 34%
Rainfall 0.31 in
Snow Depth Not available.
UV 4 out of 16
Pollen 9.40 out of 12
Air Quality Not available.
Flu Activity Sporadic
METAR KODX 211453Z AUTO 01017G25KT 10SM CLR 16/01 A3013 RMK AO2 SLP199 T01610006 51022

More Conditions Fewer Conditions

Pressure 30.12 in
Visibility 10.0 miles
Clouds Clear
Dew Point 34 °F
Humidity 34%
Rainfall 0.31 in
Snow Depth Not available.
UV 4 out of 16
Pollen 9.40 out of 12
Air Quality Not available.
Flu Activity Sporadic
METAR KODX 211453Z AUTO 01017G25KT 10SM CLR 16/01 A3013 RMK AO2 SLP199 T01610006 51022

More Conditions Fewer Conditions

10-Day Weather Forecast

Almanac

Astronomy

Apr. 21, 2014 Rise Set
Actual Time 6:48 AM CDT 8:25 PM CDT
Civil Twilight 6:18 AM CDT 8:54 PM CDT
Nautical Twilight 5:43 AM CDT 9:30 PM CDT
Astronomical Twilight 5:05 AM CDT 10:08 PM CDT
Moon 1:58 AM CDT 12:15 PM CDT
Length of Visible Light 14h 36m
Length of Day
13h 37m
Tomorrow will be 2m 36s longer.
Waning Gibbous, 58% of the Moon is Illuminated
Today
Waning Gibbous
Apr 22
Last Quarter
Apr 29
New
May 6
First Quarter
May 14
Full

Today's Extremes

State Highs State Lows

Community

  • Bright Eyes
    Bright Eyes
  • Snowy Robin
    Snowy Robin
  • Spring Crocus
    Spring Crocus
  • Sun Pillar and Geese
    Sun Pillar and Geese
  • Showers on the Way
    Showers on the Way

WunderPhotos

Upload Photos

1,703,667 photos uploaded!

Nearby

Snow Depth

Station Depth Elevation
No new snow has been reported.

Coastal Water Temperatures

Place Temperature
No Stations Reporting

Earthquake Activity

City Distance Mag. Time & Date
No recent earthquake activity has been reported nearby.
Minimum magnitude displayed is 2.5.

Nearby Weather Stations

Station Location Temp. Dew Point Humidity Wind Precip. Elev Updated Type
Sargent, Sargent, NE 62.8 °F 34 °F 34% NNW  at  1.0 mph 0.00 in / hr 2314 ft 10:47 AM CDT Normal

Show More Stations Show Fewer Stations

What do you think?

We're not finished. Please let us know what you like, what you don't like, and what you are still missing.